Tiel, Netherlands
Current Conditions -  °F | °C
As of 1:25 PM on Friday 28 Nov 2014 (Local Time) from EHVK Reporting Station
Haze Haze  
Wind Chill: 41°   Ceiling: 9900
Heat Index: 46°   Visibility: 5mi
Dew Point: 41°   Wind: 13mph
Humidity: 81%   Direction: 90°E
Pressure: 29.77"   Gusts: NA
Location:  51.89°N, 5.43°E
Report Text: EHVK 281225Z AUTO 09011KT 8000 BR OVC099 08/05 Q1008 BLU 09011KT CAVOK
Loading
Personal Weather Stations






























Interactive Weather Map New forecast layout! Learn more

10-Day Weather Forecast

Advertisements
Track Severe Weather on mobile